createdAt,value
2022-10-25T00:01:20.816Z,25.95
2022-10-25T00:03:47.319Z,20.27
2022-10-25T00:06:14.103Z,22.83
2022-10-25T00:08:40.868Z,17.17
2022-10-25T00:11:08.566Z,22.33
2022-10-25T00:13:34.987Z,17.90
2022-10-25T00:16:01.412Z,22.52
2022-10-25T00:18:28.207Z,21.85
2022-10-25T00:20:54.590Z,22.50
2022-10-25T00:23:21.134Z,19.20
2022-10-25T00:25:47.496Z,23.13
2022-10-25T00:28:16.848Z,29.25
2022-10-25T00:30:43.241Z,22.90
2022-10-25T00:33:09.688Z,26.45
2022-10-25T00:35:36.961Z,27.15
2022-10-25T00:38:03.453Z,20.50
2022-10-25T00:40:29.814Z,22.98
2022-10-25T00:42:56.247Z,25.55
2022-10-25T00:45:25.197Z,24.35
2022-10-25T00:48:04.030Z,28.45
2022-10-25T00:50:42.895Z,19.23
2022-10-25T00:53:16.600Z,27.45
2022-10-25T00:55:47.265Z,22.75
2022-10-25T00:58:18.501Z,26.10
2022-10-25T01:00:45.909Z,25.88
2022-10-25T01:03:14.883Z,18.05
2022-10-25T01:05:41.813Z,24.67
2022-10-25T01:08:08.454Z,33.15
2022-10-25T01:10:34.963Z,27.58
2022-10-25T01:13:02.243Z,30.42
2022-10-25T01:15:36.195Z,20.23
2022-10-25T01:18:31.303Z,24.60
2022-10-25T01:21:00.481Z,19.95
2022-10-25T01:23:35.878Z,20.80
2022-10-25T01:26:12.059Z,23.55
2022-10-25T01:29:19.532Z,23.65
2022-10-25T01:31:53.398Z,21.23
2022-10-25T01:34:48.015Z,29.48
2022-10-25T01:37:26.312Z,22.63
2022-10-25T01:40:30.945Z,19.75
2022-10-25T01:43:13.803Z,25.73
2022-10-25T01:45:53.089Z,23.35
2022-10-25T01:48:21.564Z,22.02
2022-10-25T01:50:48.521Z,23.98
2022-10-25T01:53:15.183Z,20.75
2022-10-25T01:55:56.750Z,23.52
2022-10-25T01:58:44.160Z,24.00
2022-10-25T02:01:35.201Z,20.92
2022-10-25T02:04:22.199Z,21.60
2022-10-25T02:07:18.394Z,28.45
2022-10-25T02:10:01.888Z,22.17
2022-10-25T02:12:55.695Z,24.92
2022-10-25T02:15:34.551Z,24.77
2022-10-25T02:18:04.843Z,25.65
2022-10-25T02:23:02.922Z,22.27
2022-10-25T02:25:32.760Z,26.90
2022-10-25T02:28:02.263Z,24.80
2022-10-25T02:30:32.323Z,26.20
2022-10-25T02:32:59.316Z,21.35
2022-10-25T02:35:25.740Z,21.90
2022-10-25T02:37:52.248Z,26.15
2022-10-25T02:40:19.292Z,26.27
2022-10-25T02:42:45.702Z,32.08
2022-10-25T02:45:12.199Z,34.50
2022-10-25T02:47:38.655Z,30.33
2022-10-25T02:50:05.643Z,31.83
2022-10-25T02:52:32.135Z,31.35
2022-10-25T02:54:58.541Z,31.40
2022-10-25T02:57:24.932Z,27.35
2022-10-25T02:59:51.347Z,25.35
2022-10-25T03:02:17.696Z,32.47
2022-10-25T03:04:44.197Z,31.92
2022-10-25T03:07:10.592Z,21.48
2022-10-25T03:09:36.929Z,28.50
2022-10-25T03:12:03.447Z,24.25
2022-10-25T03:14:29.795Z,33.00
2022-10-25T03:16:56.149Z,29.33
2022-10-25T03:19:22.486Z,27.42
2022-10-25T03:21:48.842Z,29.63
2022-10-25T03:24:15.345Z,32.85
2022-10-25T03:26:41.710Z,27.40
2022-10-25T03:29:08.302Z,26.17
2022-10-25T03:31:34.671Z,34.90
2022-10-25T03:34:01.139Z,39.35
2022-10-25T03:36:27.736Z,31.25
2022-10-25T03:38:54.432Z,28.30
2022-10-25T03:41:20.799Z,32.20
2022-10-25T03:43:47.192Z,33.70
2022-10-25T03:46:13.938Z,29.92
2022-10-25T03:48:40.425Z,30.33
2022-10-25T03:51:06.860Z,32.42
2022-10-25T03:53:33.529Z,34.13
2022-10-25T03:55:59.970Z,27.67
2022-10-25T03:58:26.393Z,33.08
2022-10-25T04:00:52.821Z,31.83
2022-10-25T04:03:19.209Z,35.20
2022-10-25T04:05:45.587Z,33.58
2022-10-25T04:08:11.951Z,30.55
2022-10-25T04:10:38.420Z,29.90
2022-10-25T04:13:04.805Z,27.15
2022-10-25T04:15:31.632Z,32.28
2022-10-25T04:17:58.031Z,28.08
2022-10-25T04:20:24.487Z,29.55
2022-10-25T04:22:55.645Z,29.77
2022-10-25T04:25:23.489Z,32.40
2022-10-25T04:27:50.041Z,35.55
2022-10-25T04:30:16.808Z,33.72
2022-10-25T04:32:43.333Z,31.38
2022-10-25T04:35:10.035Z,32.45
2022-10-25T04:37:36.472Z,29.35
2022-10-25T04:40:02.896Z,29.83
2022-10-25T04:42:29.262Z,36.65
2022-10-25T04:44:55.620Z,37.85
2022-10-25T04:47:22.002Z,32.35
2022-10-25T04:49:48.384Z,34.40
2022-10-25T04:52:14.815Z,30.45
2022-10-25T04:54:41.465Z,33.00
2022-10-25T04:57:07.967Z,32.58
2022-10-25T04:59:34.350Z,31.70
2022-10-25T05:02:00.756Z,28.02
2022-10-25T05:04:27.125Z,42.47
2022-10-25T05:06:53.547Z,40.63
2022-10-25T05:09:19.918Z,36.95
2022-10-25T05:11:46.350Z,37.25
2022-10-25T05:14:14.739Z,33.60
2022-10-25T05:16:41.144Z,25.70
2022-10-25T05:19:07.540Z,27.63
2022-10-25T05:21:35.273Z,31.40
2022-10-25T05:24:02.407Z,34.38
2022-10-25T05:26:30.863Z,30.52
2022-10-25T05:29:00.110Z,36.08
2022-10-25T05:31:29.033Z,30.67
2022-10-25T05:33:57.837Z,30.55
2022-10-25T05:36:25.376Z,36.63
2022-10-25T05:38:51.932Z,36.85
2022-10-25T05:41:18.996Z,33.33
2022-10-25T05:43:45.914Z,34.38
2022-10-25T05:46:20.615Z,30.15
2022-10-25T05:48:48.897Z,35.75
2022-10-25T05:51:36.119Z,34.67
2022-10-25T05:54:13.989Z,35.50
2022-10-25T05:56:40.985Z,27.08
2022-10-25T05:59:10.795Z,29.10
2022-10-25T06:01:40.020Z,29.50
2022-10-25T06:04:06.952Z,31.83
2022-10-25T06:06:33.415Z,31.13
2022-10-25T06:09:01.179Z,37.63
2022-10-25T06:11:28.918Z,35.53
2022-10-25T06:13:55.738Z,32.75
2022-10-25T06:16:22.402Z,37.00
2022-10-25T06:18:49.051Z,36.20
2022-10-25T06:21:18.579Z,39.92
2022-10-25T06:23:45.915Z,39.13
2022-10-25T06:26:15.147Z,42.90
2022-10-25T06:28:42.015Z,35.47
2022-10-25T06:31:14.330Z,41.50
2022-10-25T06:33:41.073Z,38.38
2022-10-25T06:36:13.182Z,35.90
2022-10-25T06:38:39.776Z,40.58
2022-10-25T06:41:11.392Z,39.45
2022-10-25T06:43:38.810Z,35.90
2022-10-25T06:46:10.271Z,42.13
2022-10-25T06:48:37.318Z,40.80
2022-10-25T06:51:09.811Z,40.83
2022-10-25T06:53:37.441Z,52.78
2022-10-25T06:56:09.236Z,41.45
2022-10-25T06:58:38.701Z,34.10
2022-10-25T07:01:11.404Z,38.47
2022-10-25T07:03:38.049Z,40.17
2022-10-25T07:06:12.829Z,41.60
2022-10-25T07:08:41.747Z,44.38
2022-10-25T07:11:13.254Z,49.00
2022-10-25T07:13:39.687Z,44.67
2022-10-25T07:16:07.996Z,45.03
2022-10-25T07:18:35.315Z,42.08
2022-10-25T07:21:21.769Z,49.75
2022-10-25T07:23:49.996Z,39.60
2022-10-25T07:26:23.886Z,54.63
2022-10-25T07:28:52.006Z,41.17
2022-10-25T07:31:20.935Z,48.10
2022-10-25T07:33:48.655Z,43.40
2022-10-25T07:36:15.037Z,43.28
2022-10-25T07:38:41.499Z,42.85
2022-10-25T07:41:08.977Z,40.97
2022-10-25T07:43:35.589Z,36.97
2022-10-25T07:46:02.551Z,41.45
2022-10-25T07:48:32.008Z,35.42
2022-10-25T07:51:02.861Z,43.78
2022-10-25T07:53:29.218Z,39.88
2022-10-25T07:55:55.705Z,40.80
2022-10-25T07:58:22.403Z,35.30
2022-10-25T08:00:48.945Z,45.15
2022-10-25T08:03:17.232Z,41.78
2022-10-25T08:05:45.409Z,35.55
2022-10-25T08:08:12.845Z,36.65
2022-10-25T08:10:41.430Z,39.28
2022-10-25T08:13:07.808Z,38.42
2022-10-25T08:15:36.232Z,37.25
2022-10-25T08:18:04.101Z,34.05
2022-10-25T08:20:56.409Z,32.35
2022-10-25T08:23:18.398Z,31.63
2022-10-25T08:25:45.160Z,42.80
2022-10-25T08:28:11.734Z,42.40
2022-10-25T08:30:38.191Z,40.85
2022-10-25T08:33:07.279Z,32.58
2022-10-25T08:35:35.887Z,41.00
2022-10-25T08:38:04.297Z,32.08
2022-10-25T08:41:26.543Z,35.13
2022-10-25T08:44:14.035Z,32.33
2022-10-25T08:47:00.457Z,36.50
2022-10-25T08:49:41.214Z,35.60
2022-10-25T08:52:18.666Z,30.05
2022-10-25T08:54:46.832Z,33.80
2022-10-25T08:57:24.244Z,35.03
2022-10-25T08:59:54.687Z,34.50
2022-10-25T09:02:43.112Z,31.52
2022-10-25T09:05:36.736Z,31.17
2022-10-25T09:08:17.581Z,34.17
2022-10-25T09:10:53.157Z,29.60
2022-10-25T09:13:31.492Z,30.05
2022-10-25T09:16:14.243Z,27.80
2022-10-25T09:18:50.991Z,27.08
2022-10-25T09:21:48.070Z,25.38
2022-10-25T09:24:22.921Z,29.48
2022-10-25T09:26:58.461Z,31.38
2022-10-25T09:29:50.816Z,26.27
2022-10-25T09:32:29.618Z,27.77
2022-10-25T09:34:56.629Z,24.20
2022-10-25T09:37:30.498Z,25.75
2022-10-25T09:40:00.907Z,25.23
2022-10-25T09:42:33.979Z,21.33
2022-10-25T09:45:06.649Z,28.48
2022-10-25T09:48:18.154Z,25.35
2022-10-25T09:50:53.506Z,27.10
2022-10-25T09:53:23.099Z,25.13
2022-10-25T09:56:03.364Z,21.40
2022-10-25T09:58:37.833Z,27.48
2022-10-25T10:01:07.594Z,26.20
2022-10-25T10:03:36.323Z,20.52
2022-10-25T10:06:16.139Z,21.05
2022-10-25T10:08:49.383Z,20.90
2022-10-25T10:11:18.504Z,18.05
2022-10-25T10:13:50.617Z,16.30
2022-10-25T10:16:38.500Z,22.00
2022-10-25T10:19:20.928Z,19.75
2022-10-25T10:21:51.199Z,21.58
2022-10-25T10:24:23.656Z,22.40
2022-10-25T10:26:55.489Z,21.65
2022-10-25T10:29:33.070Z,22.00
2022-10-25T10:32:01.647Z,23.48
2022-10-25T10:34:51.122Z,25.83
2022-10-25T10:37:22.826Z,26.45
2022-10-25T10:39:59.557Z,24.40
2022-10-25T10:42:36.754Z,22.73
2022-10-25T10:45:09.065Z,25.10
2022-10-25T10:47:41.794Z,21.45
2022-10-25T10:50:25.540Z,23.10
2022-10-25T10:53:17.734Z,18.38
2022-10-25T10:55:44.038Z,22.10
2022-10-25T10:58:24.768Z,24.10
2022-10-25T11:01:06.228Z,17.92
2022-10-25T11:03:48.922Z,17.60
2022-10-25T11:06:29.873Z,23.73
2022-10-25T11:09:19.262Z,18.90
2022-10-25T11:12:05.288Z,15.75
2022-10-25T11:14:31.884Z,16.00
2022-10-25T11:17:14.457Z,17.08
2022-10-25T11:19:54.603Z,13.70
2022-10-25T11:25:20.971Z,19.80
2022-10-25T11:28:04.592Z,14.10
2022-10-25T11:30:43.809Z,19.13
2022-10-25T11:33:21.702Z,11.83
2022-10-25T11:36:19.838Z,20.17
2022-10-25T11:38:59.065Z,18.13
2022-10-25T11:41:57.436Z,16.67
2022-10-25T11:44:35.688Z,19.42
2022-10-25T11:47:31.033Z,20.98
2022-10-25T11:50:12.564Z,16.20
2022-10-25T11:53:06.906Z,16.45
2022-10-25T11:55:48.608Z,19.55
2022-10-25T11:58:43.348Z,17.25
2022-10-25T12:01:32.493Z,16.52
2022-10-25T12:04:17.221Z,16.88
2022-10-25T12:06:52.351Z,20.60
2022-10-25T12:09:38.185Z,16.80
2022-10-25T12:12:30.313Z,16.17
2022-10-25T12:15:00.618Z,22.55
2022-10-25T12:17:31.076Z,19.15
2022-10-25T12:20:01.745Z,16.85
2022-10-25T12:22:37.716Z,15.25
2022-10-25T12:25:08.185Z,18.00
2022-10-25T12:27:36.146Z,20.02
2022-10-25T12:30:07.242Z,22.45
2022-10-25T12:32:42.674Z,14.57
2022-10-25T12:35:29.486Z,20.33
2022-10-25T12:38:00.030Z,22.77
2022-10-25T12:40:29.019Z,19.20
2022-10-25T12:43:12.877Z,26.47
2022-10-25T12:46:14.872Z,12.85
2022-10-25T12:48:44.058Z,18.42
2022-10-25T12:51:15.346Z,15.10
2022-10-25T12:54:06.241Z,17.30
2022-10-25T12:56:58.577Z,15.38
2022-10-25T12:59:46.448Z,18.30
2022-10-25T13:02:40.702Z,16.48
2022-10-25T13:05:37.024Z,18.30
2022-10-25T13:08:06.172Z,17.40
2022-10-25T13:10:39.766Z,23.67
2022-10-25T13:13:16.093Z,16.92
2022-10-25T13:15:46.410Z,14.20
2022-10-25T13:18:34.280Z,18.20
2022-10-25T13:21:02.268Z,19.08
2022-10-25T13:23:44.186Z,16.60
2022-10-25T13:26:15.995Z,15.13
2022-10-25T13:28:50.662Z,16.40
2022-10-25T13:31:35.479Z,14.13
2022-10-25T13:34:13.690Z,18.23
2022-10-25T13:37:00.947Z,19.20
2022-10-25T13:39:32.502Z,16.15
2022-10-25T13:42:20.245Z,19.33
2022-10-25T13:45:01.901Z,21.30
2022-10-25T13:47:45.894Z,18.98
2022-10-25T13:50:26.960Z,15.80
2022-10-25T13:53:26.225Z,23.33
2022-10-25T13:56:13.270Z,24.97
2022-10-25T13:58:56.316Z,14.88
2022-10-25T14:01:24.836Z,18.73
2022-10-25T14:03:52.002Z,17.35
2022-10-25T14:06:29.322Z,23.77
2022-10-25T14:09:20.009Z,22.77
2022-10-25T14:12:09.034Z,15.80
2022-10-25T14:15:16.947Z,17.55
2022-10-25T14:17:45.111Z,14.57
2022-10-25T14:20:30.398Z,15.05
2022-10-25T14:23:01.599Z,16.63
2022-10-25T14:25:42.508Z,18.55
2022-10-25T14:28:20.698Z,14.05
2022-10-25T14:30:49.341Z,19.05
2022-10-25T14:33:30.484Z,16.15
2022-10-25T14:36:26.620Z,23.33
2022-10-25T14:39:01.616Z,16.10
2022-10-25T14:41:30.948Z,16.00
2022-10-25T14:43:58.291Z,11.75
2022-10-25T14:46:27.168Z,19.55
2022-10-25T14:48:56.823Z,15.05
2022-10-25T14:51:32.321Z,19.73
2022-10-25T14:54:00.482Z,21.17
2022-10-25T14:56:29.061Z,20.88
2022-10-25T14:58:56.429Z,15.20
2022-10-25T15:01:23.771Z,13.98
2022-10-25T15:03:53.635Z,17.98
2022-10-25T15:06:23.798Z,14.05
2022-10-25T15:11:40.695Z,15.70
2022-10-25T15:14:21.328Z,13.63
2022-10-25T15:16:49.866Z,15.73
2022-10-25T15:19:20.322Z,20.17
2022-10-25T15:21:50.134Z,21.67
2022-10-25T15:24:25.428Z,12.65
2022-10-25T15:26:59.650Z,14.38
2022-10-25T15:29:42.373Z,14.27
2022-10-25T15:32:27.542Z,15.05
2022-10-25T15:34:57.090Z,17.85
2022-10-25T15:37:25.525Z,19.30
2022-10-25T15:39:54.182Z,19.60
2022-10-25T15:42:22.574Z,16.23
2022-10-25T15:44:49.410Z,22.80
2022-10-25T15:47:34.299Z,21.55
2022-10-25T15:50:06.751Z,16.50
2022-10-25T15:52:33.325Z,19.25
2022-10-25T15:54:59.658Z,18.30
2022-10-25T15:57:27.345Z,17.17
2022-10-25T15:59:54.081Z,16.48
2022-10-25T16:02:26.232Z,18.77
2022-10-25T16:04:52.629Z,15.88
2022-10-25T16:07:19.322Z,15.68
2022-10-25T16:09:45.863Z,13.40
2022-10-25T16:12:20.974Z,16.23
2022-10-25T16:14:49.458Z,17.90
2022-10-25T16:17:15.821Z,16.20
2022-10-25T16:19:42.207Z,15.07
2022-10-25T16:22:08.754Z,13.85
2022-10-25T16:24:35.198Z,15.57
2022-10-25T16:27:01.972Z,19.00
2022-10-25T16:29:29.514Z,17.40
2022-10-25T16:31:55.848Z,15.43
2022-10-25T16:34:22.217Z,18.23
2022-10-25T16:36:50.305Z,16.60
2022-10-25T16:39:17.306Z,13.65
2022-10-25T16:41:46.474Z,13.15
2022-10-25T16:44:17.261Z,21.58
2022-10-25T16:46:44.829Z,16.58
2022-10-25T16:49:11.665Z,12.32
2022-10-25T16:51:39.226Z,20.65
2022-10-25T16:54:06.269Z,18.15
2022-10-25T16:56:32.673Z,15.38
2022-10-25T16:58:59.486Z,17.92
2022-10-25T17:01:33.845Z,17.65
2022-10-25T17:04:01.532Z,21.42
2022-10-25T17:06:40.748Z,14.73
2022-10-25T17:09:08.225Z,16.15
2022-10-25T17:11:34.673Z,19.83
2022-10-25T17:14:01.050Z,27.65
2022-10-25T17:16:27.420Z,19.20
2022-10-25T17:18:53.777Z,22.58
2022-10-25T17:21:20.150Z,22.95
2022-10-25T17:23:46.686Z,18.60
2022-10-25T17:26:13.863Z,21.38
2022-10-25T17:28:43.872Z,22.05
2022-10-25T17:31:13.350Z,17.85
2022-10-25T17:33:40.636Z,20.83
2022-10-25T17:36:10.211Z,20.52
2022-10-25T17:38:36.869Z,19.70
2022-10-25T17:41:03.753Z,16.98
2022-10-25T17:43:30.196Z,19.08
2022-10-25T17:46:04.783Z,23.08
2022-10-25T17:48:31.624Z,18.65
2022-10-25T17:51:16.209Z,21.45
2022-10-25T17:53:42.625Z,17.80
2022-10-25T17:56:18.896Z,17.00
2022-10-25T17:58:47.013Z,19.30
2022-10-25T18:01:16.865Z,21.27
2022-10-25T18:03:43.407Z,21.60
2022-10-25T18:06:13.024Z,21.30
2022-10-25T18:08:39.728Z,20.13
2022-10-25T18:11:10.421Z,20.58
2022-10-25T18:13:38.329Z,17.30
2022-10-25T18:18:38.629Z,19.58
2022-10-25T18:21:06.498Z,16.80
2022-10-25T18:23:33.646Z,16.73
2022-10-25T18:26:00.396Z,25.67
2022-10-25T18:28:27.061Z,23.00
2022-10-25T18:31:08.358Z,22.10
2022-10-25T18:33:37.305Z,23.73
2022-10-25T18:36:12.187Z,17.55
2022-10-25T18:38:38.651Z,21.65
2022-10-25T18:41:10.578Z,23.50
2022-10-25T18:43:36.918Z,19.20
2022-10-25T18:46:03.447Z,24.90
2022-10-25T18:48:29.875Z,19.75
2022-10-25T18:50:56.247Z,25.77
2022-10-25T18:53:22.959Z,21.30
2022-10-25T18:55:52.440Z,26.55
2022-10-25T18:58:19.377Z,23.88
2022-10-25T19:00:46.358Z,23.05
2022-10-25T19:03:14.011Z,32.58
2022-10-25T19:05:41.168Z,22.90
2022-10-25T19:08:09.895Z,26.80
2022-10-25T19:10:40.717Z,21.88
2022-10-25T19:13:08.577Z,27.95
2022-10-25T19:15:35.009Z,25.98
2022-10-25T19:18:01.490Z,24.23
2022-10-25T19:20:27.925Z,26.10
2022-10-25T19:22:58.504Z,24.25
2022-10-25T19:25:28.559Z,23.02
2022-10-25T19:27:55.620Z,22.35
2022-10-25T19:30:22.410Z,30.50
2022-10-25T19:32:48.918Z,32.95
2022-10-25T19:35:15.371Z,29.52
2022-10-25T19:37:41.839Z,27.08
2022-10-25T19:40:09.883Z,28.95
2022-10-25T19:42:36.262Z,27.73
2022-10-25T19:45:04.454Z,30.10
2022-10-25T19:47:30.923Z,26.67
2022-10-25T19:49:57.653Z,23.00
2022-10-25T19:52:24.097Z,26.85
2022-10-25T19:54:50.522Z,31.13
2022-10-25T19:57:16.965Z,33.70
2022-10-25T19:59:43.425Z,33.53
2022-10-25T20:02:10.133Z,30.85
2022-10-25T20:04:36.783Z,30.77
2022-10-25T20:07:05.318Z,24.77
2022-10-25T20:09:31.723Z,28.85
2022-10-25T20:11:58.126Z,37.38
2022-10-25T20:14:24.520Z,28.73
2022-10-25T20:16:50.994Z,26.70
2022-10-25T20:19:17.421Z,29.63
2022-10-25T20:21:44.001Z,27.90
2022-10-25T20:24:10.537Z,33.35
2022-10-25T20:26:39.685Z,29.90
2022-10-25T20:29:15.629Z,28.08
2022-10-25T20:31:45.036Z,29.70
2022-10-25T20:34:11.439Z,27.80
2022-10-25T20:36:38.367Z,33.95
2022-10-25T20:39:04.859Z,24.98
2022-10-25T20:41:33.924Z,39.72
2022-10-25T20:44:02.854Z,35.40
2022-10-25T20:46:29.890Z,31.77
2022-10-25T20:48:57.238Z,35.38
2022-10-25T20:51:23.890Z,35.88
2022-10-25T20:53:50.752Z,32.97
2022-10-25T20:56:19.046Z,34.22
2022-10-25T20:58:45.822Z,32.17
2022-10-25T21:01:12.449Z,27.63
2022-10-25T21:03:39.278Z,31.52
2022-10-25T21:06:07.758Z,27.65
2022-10-25T21:08:36.909Z,26.80
2022-10-25T21:11:06.638Z,29.95
2022-10-25T21:13:34.851Z,26.13
2022-10-25T21:16:12.009Z,29.17
2022-10-25T21:18:39.058Z,30.95
2022-10-25T21:21:07.956Z,34.78
2022-10-25T21:23:35.164Z,26.17
2022-10-25T21:26:04.503Z,23.38
2022-10-25T21:28:36.673Z,27.07
2022-10-25T21:31:08.443Z,25.92
2022-10-25T21:33:34.826Z,24.88
2022-10-25T21:36:10.820Z,32.55
2022-10-25T21:38:37.283Z,29.77
2022-10-25T21:41:12.562Z,31.10
2022-10-25T21:43:49.684Z,23.70
2022-10-25T21:46:17.629Z,27.30
2022-10-25T21:48:47.282Z,26.23
2022-10-25T21:51:14.410Z,36.13
2022-10-25T21:53:41.074Z,36.88
2022-10-25T21:56:10.511Z,25.58
2022-10-25T21:58:41.344Z,33.23
2022-10-25T22:01:12.518Z,29.20
2022-10-25T22:03:39.888Z,25.15
2022-10-25T22:06:07.832Z,26.17
2022-10-25T22:08:37.410Z,24.92
2022-10-25T22:11:07.319Z,31.17
2022-10-25T22:13:37.326Z,30.63
2022-10-25T22:16:09.743Z,28.27
2022-10-25T22:18:37.225Z,27.42
2022-10-25T22:21:10.062Z,25.40
2022-10-25T22:23:37.520Z,22.65
2022-10-25T22:26:06.716Z,25.88
2022-10-25T22:28:38.362Z,26.80
2022-10-25T22:31:11.957Z,25.75
2022-10-25T22:33:39.180Z,28.20
2022-10-25T22:36:15.036Z,25.80
2022-10-25T22:38:42.439Z,26.73
2022-10-25T22:41:28.027Z,27.63
2022-10-25T22:43:54.593Z,25.08
2022-10-25T22:46:25.148Z,24.65
2022-10-25T22:48:53.786Z,29.02
2022-10-25T22:51:21.506Z,28.65
2022-10-25T22:53:47.861Z,25.88
2022-10-25T22:56:15.743Z,28.55
2022-10-25T22:58:43.450Z,31.30
2022-10-25T23:01:37.619Z,25.55
2022-10-25T23:04:09.221Z,22.00
2022-10-25T23:06:38.018Z,30.02
2022-10-25T23:09:09.071Z,26.13
2022-10-25T23:11:37.617Z,26.17
2022-10-25T23:14:05.228Z,32.22
2022-10-25T23:16:31.704Z,26.13
2022-10-25T23:18:58.132Z,29.38
2022-10-25T23:21:26.738Z,29.23
2022-10-25T23:27:39.813Z,26.38
2022-10-25T23:30:09.835Z,28.27
2022-10-25T23:32:38.873Z,26.85
2022-10-25T23:35:05.650Z,26.40
2022-10-25T23:37:32.044Z,22.52
2022-10-25T23:39:58.415Z,25.83
2022-10-25T23:42:24.868Z,25.05
2022-10-25T23:44:51.259Z,24.20
2022-10-25T23:47:17.613Z,25.38
2022-10-25T23:49:44.045Z,25.40
2022-10-25T23:52:10.411Z,27.08
2022-10-25T23:54:36.767Z,26.67
2022-10-25T23:57:03.341Z,27.70
2022-10-25T23:59:29.699Z,25.60
